Aérodrome :
LOGIN :

S'inscrire | Disclaimer

   EN    FR    IT 

 










Légende :    VFR   VFR Marginal   IFR   IFR Intensif   IFR Très Intensif
Visi : 
Plafond : 
>= 8 km
>= 3000ft
5 à 8 km
1000 à 3000 ft
1500m à 5 km
500 à 1000 ft
800 à 1500m
200 à 500 ft
< 800m
< 200 ft
Symboles :   Orages  Brouillard  Fortes neiges  Fortes précipitations  Vent > 20 kt
SIGMETs :   Divers  Orages  Givrage  Turbulence  Onde Orograph.  Cendres Volcan.






- Altitude de l'aérodrome : 400 ft
- Code IATA : BNX


LQBK - Banja Luka

DERNIER METAR :
  • 291200Z VRB06KT 9999 FEW040 36/16 Q1010 NOSIG

METARs EXPIRÉS :
  • 291130Z VRB06KT CAVOK 35/16 Q1010 NOSIG
  • 291100Z VRB06KT CAVOK 35/16 Q1010 NOSIG
  • 291030Z VRB05KT CAVOK 34/16 Q1010 NOSIG
  • 291000Z VRB04KT CAVOK 33/17 Q1011 NOSIG
  • 290930Z VRB05KT CAVOK 33/17 Q1011 NOSIG

TAF TAF LQBK
Valide du 29 à 12h jusqu'au 30 à 12h UTC


291100Z 2912/3012 03005KT CAVOK TX36/2914Z TN18/3003Z
TEMPO 2912/2917 09010KT
PROB40
TEMPO 2913/2921 VRB15KT TSRA FEW035CB SCT040



MET'MAP, la Météo Aéronautique d'un coup d'oeil ! - Copyright ORBIFLY Décembre 2007 - Disclaimer

ORBIFLY MET'MAP TEAM :

Programmation & Développement : Alexandra Zaïnal
Sur une idée originale de : Baudouin d'Aumeries
Soutien technique & logistique : Manuel Goepfert
Assistance : Marc-Olivier Méhu




SOURCES & CREDITS :

   NOAA